Time;durP1;ratioP1;P1;durP2;ratioP2;P2;SDS_P1;SDS_P2;PMS_P1;PMS_P2;Temp;Humidity;BMP_temperature;BMP_pressure;BME280_temperature;BME280_humidity;BME280_pressure;Samples;Min_cycle;Max_cycle;Signal;HPM_P1;HPM_P2
2021/12/17 00:04:29;;;;;;;17.30;10.83;;;6.20;92.30;;;;;;4996585;28;20287;-87
2021/12/17 00:06:58;;;;;;;37.00;18.87;;;5.90;92.30;;;;;;4995973;28;20207;-86
2021/12/17 00:09:25;;;;;;;17.93;11.00;;;5.70;93.50;;;;;;5003654;28;20220;-86
2021/12/17 00:11:53;;;;;;;43.40;20.80;;;5.50;93.20;;;;;;4995967;28;20212;-86
2021/12/17 00:14:26;;;;;;;27.87;15.57;;;5.50;94.20;;;;;;4995292;28;20236;-86
2021/12/17 00:16:53;;;;;;;62.90;27.13;;;5.50;93.70;;;;;;4988848;28;20275;-87
2021/12/17 00:19:30;;;;;;;61.00;27.33;;;5.40;94.40;;;;;;4992120;28;20311;-86
2021/12/17 00:49:41;;;;;;;30.47;15.03;;;5.30;93.40;;;;;;4997723;28;20235;-86
2021/12/17 00:52:08;;;;;;;42.00;18.83;;;5.10;94.00;;;;;;4999433;28;20527;-86
2021/12/17 00:54:40;;;;;;;52.43;23.17;;;5.20;94.00;;;;;;4998887;28;20229;-85
2021/12/17 00:57:12;;;;;;;11.87;9.17;;;5.20;93.80;;;;;;5001612;28;20250;-87
2021/12/17 00:59:40;;;;;;;17.23;10.07;;;5.00;93.10;;;;;;4995614;28;20228;-85
2021/12/17 01:02:09;;;;;;;23.37;13.40;;;4.70;94.10;;;;;;4998469;28;20223;-87
2021/12/17 01:04:39;;;;;;;63.83;26.60;;;4.80;95.00;;;;;;4998922;28;20298;-85
2021/12/17 01:07:07;;;;;;;11.93;9.10;;;5.00;95.10;;;;;;5002231;28;20467;-87
2021/12/17 01:09:36;;;;;;;77.87;29.83;;;4.90;93.90;;;;;;5002642;28;20223;-85
2021/12/17 01:12:05;;;;;;;82.50;32.70;;;4.90;95.10;;;;;;5007046;28;20234;-85
2021/12/17 01:14:33;;;;;;;68.87;27.63;;;5.30;94.50;;;;;;4995688;28;20223;-85
2021/12/17 01:20:21;;;;;;;78.00;32.30;;;5.80;93.00;;;;;;5085605;27;20953;-86
2021/12/17 01:23:08;;;;;;;67.87;25.53;;;5.90;92.70;;;;;;5089554;28;20250;-85
2021/12/17 01:25:51;;;;;;;38.70;19.27;;;5.90;92.10;;;;;;5089600;28;20331;-85
2021/12/17 01:36:35;;;;;;;13.23;8.80;;;5.50;92.80;;;;;;5077939;28;20270;-85
2021/12/17 01:41:59;;;;;;;21.10;10.90;;;5.10;93.80;;;;;;5079723;28;20207;-86
2021/12/17 01:44:26;;;;;;;26.23;13.47;;;5.20;93.40;;;;;;5074467;28;20223;-85
2021/12/17 01:46:58;;;;;;;46.90;21.10;;;5.30;93.20;;;;;;5092078;28;20284;-85
2021/12/17 01:55:46;;;;;;;10.80;8.30;;;5.50;93.70;;;;;;5091354;28;20303;-85
2021/12/17 02:00:43;;;;;;;11.70;8.50;;;5.30;93.40;;;;;;5065030;28;20228;-86
2021/12/17 02:03:15;;;;;;;10.87;8.53;;;4.90;93.00;;;;;;5069390;28;20649;-86
2021/12/17 02:05:43;;;;;;;25.80;13.47;;;4.70;93.80;;;;;;5071637;28;20564;-85
2021/12/17 02:08:12;;;;;;;18.63;11.47;;;4.80;95.00;;;;;;5072641;28;20204;-86
2021/12/17 02:11:31;;;;;;;17.07;10.30;;;4.90;94.90;;;;;;5063249;28;20245;-86
2021/12/17 02:22:42;;;;;;;11.03;8.87;;;5.20;94.00;;;;;;5060330;28;20198;-86
2021/12/17 02:31:00;;;;;;;11.07;8.70;;;4.90;94.60;;;;;;5061076;28;20236;-86
2021/12/17 02:33:27;;;;;;;15.13;9.53;;;4.80;94.80;;;;;;5056847;28;20722;-86
2021/12/17 02:35:54;;;;;;;12.57;8.83;;;4.80;95.00;;;;;;5057732;28;20229;-85
2021/12/17 02:38:22;;;;;;;11.57;8.30;;;4.80;94.70;;;;;;5041605;28;20317;-85
2021/12/17 02:46:18;;;;;;;10.83;8.07;;;4.90;95.10;;;;;;5050562;28;20595;-86
2021/12/17 02:48:45;;;;;;;17.40;10.40;;;5.10;94.30;;;;;;5048256;28;20656;-86
2021/12/17 02:51:12;;;;;;;13.33;9.30;;;5.10;94.60;;;;;;5058942;28;20218;-86
2021/12/17 02:53:42;;;;;;;12.60;8.40;;;5.50;93.70;;;;;;5048346;28;20202;-87
2021/12/17 02:56:09;;;;;;;16.33;10.03;;;5.60;92.60;;;;;;5049424;28;20309;-87
2021/12/17 02:58:38;;;;;;;11.80;8.67;;;5.40;93.50;;;;;;5049349;28;20232;-85
2021/12/17 03:01:08;;;;;;;10.80;8.57;;;5.30;92.80;;;;;;5051159;28;20224;-86
2021/12/17 03:03:38;;;;;;;14.20;9.03;;;5.10;93.30;;;;;;5050002;28;20194;-86
2021/12/17 03:06:06;;;;;;;12.90;8.57;;;5.00;95.30;;;;;;5056651;28;20236;-85
2021/12/17 03:08:33;;;;;;;13.20;9.30;;;5.50;93.90;;;;;;5041174;28;20241;-85
2021/12/17 03:11:01;;;;;;;11.93;7.43;;;5.60;93.10;;;;;;5036684;28;20230;-86
2021/12/17 03:13:32;;;;;;;11.30;7.90;;;5.60;92.50;;;;;;5040130;28;20213;-86
2021/12/17 03:16:03;;;;;;;14.60;7.90;;;5.40;92.70;;;;;;5047448;28;20229;-87
2021/12/17 03:24:05;;;;;;;10.90;8.30;;;5.30;93.30;;;;;;5046669;28;20189;-87
2021/12/17 03:26:34;;;;;;;12.10;8.00;;;5.30;93.80;;;;;;5046175;28;20203;-86
2021/12/17 03:29:04;;;;;;;11.83;8.37;;;5.30;94.60;;;;;;5047561;28;20191;-86
2021/12/17 03:31:32;;;;;;;10.23;7.97;;;5.40;94.20;;;;;;5049135;28;20560;-86
2021/12/17 03:34:11;;;;;;;10.37;8.13;;;5.80;93.70;;;;;;5037183;28;20282;-86
2021/12/17 03:36:38;;;;;;;13.13;7.73;;;5.70;93.10;;;;;;5039342;28;20202;-86
2021/12/17 03:39:06;;;;;;;10.40;8.37;;;5.60;92.80;;;;;;5052036;28;20226;-86
2021/12/17 03:42:00;;;;;;;10.57;8.37;;;5.30;93.20;;;;;;5035343;28;20201;-87
2021/12/17 03:44:29;;;;;;;10.40;8.40;;;5.10;93.70;;;;;;5041567;28;20225;-86
2021/12/17 03:46:56;;;;;;;11.67;8.63;;;4.90;94.40;;;;;;5035958;28;20289;-87
2021/12/17 03:49:23;;;;;;;11.00;8.83;;;4.80;95.00;;;;;;5049771;28;20226;-86
2021/12/17 03:52:03;;;;;;;12.27;8.87;;;4.80;95.00;;;;;;5054283;28;20649;-86
2021/12/17 03:54:30;;;;;;;10.40;8.80;;;4.80;95.00;;;;;;5035815;28;20236;-87
2021/12/17 03:56:59;;;;;;;12.60;8.57;;;4.70;95.40;;;;;;5055520;28;20197;-87
2021/12/17 03:59:26;;;;;;;11.80;9.23;;;4.70;95.50;;;;;;5052311;28;20237;-86
2021/12/17 04:01:53;;;;;;;11.10;8.97;;;4.70;95.80;;;;;;5053743;28;20208;-86
2021/12/17 04:04:20;;;;;;;10.63;8.53;;;4.70;96.00;;;;;;5051799;28;20228;-86
2021/12/17 04:06:47;;;;;;;10.73;8.47;;;5.10;95.10;;;;;;5055960;28;20201;-86
2021/12/17 04:09:19;;;;;;;12.97;9.70;;;5.10;95.10;;;;;;5046834;28;20667;-86
2021/12/17 04:11:46;;;;;;;13.00;8.40;;;5.10;95.10;;;;;;5038833;28;20198;-86
2021/12/17 04:14:15;;;;;;;12.20;9.17;;;5.20;94.40;;;;;;5040408;28;20247;-86
2021/12/17 04:16:42;;;;;;;10.10;7.70;;;5.10;94.70;;;;;;5051085;28;20213;-86
2021/12/17 04:19:08;;;;;;;9.97;8.13;;;5.10;94.70;;;;;;5041262;28;20320;-86
2021/12/17 04:21:35;;;;;;;11.17;7.70;;;5.30;94.10;;;;;;5051643;28;20289;-87
2021/12/17 04:24:02;;;;;;;10.73;8.07;;;5.50;93.50;;;;;;5044402;28;20203;-87
2021/12/17 04:26:29;;;;;;;10.50;8.03;;;5.70;93.70;;;;;;5050568;28;20285;-87
2021/12/17 04:28:56;;;;;;;11.57;7.43;;;5.80;93.30;;;;;;5040462;28;20214;-86
2021/12/17 04:31:27;;;;;;;10.40;7.87;;;6.00;93.20;;;;;;5026842;28;20754;-86
2021/12/17 04:33:55;;;;;;;11.57;8.23;;;6.10;92.50;;;;;;5040988;28;20696;-88
2021/12/17 04:36:26;;;;;;;11.13;7.87;;;5.70;92.50;;;;;;5046135;28;20229;-86
2021/12/17 04:38:54;;;;;;;9.10;7.17;;;5.50;93.80;;;;;;5043670;28;20242;-87
2021/12/17 04:44:23;;;;;;;8.63;6.93;;;5.60;93.70;;;;;;4976573;28;20200;-86
2021/12/17 04:47:00;;;;;;;11.10;7.93;;;5.70;93.60;;;;;;4994941;28;20319;-86
2021/12/17 04:58:06;;;;;;;8.83;6.97;;;5.40;94.80;;;;;;5066096;28;20251;-87
2021/12/17 05:00:48;;;;;;;9.23;6.77;;;5.50;93.80;;;;;;5076071;28;20233;-86
2021/12/17 05:03:17;;;;;;;9.03;6.83;;;5.40;93.40;;;;;;5076679;28;20228;-86
2021/12/17 05:05:44;;;;;;;8.13;6.80;;;5.50;94.00;;;;;;5078894;28;20299;-86
2021/12/17 05:08:15;;;;;;;7.53;6.43;;;5.60;93.60;;;;;;5079172;28;20224;-85
2021/12/17 05:10:59;;;;;;;8.40;6.67;;;5.60;93.40;;;;;;5079159;28;20225;-85
2021/12/17 05:19:46;;;;;;;11.80;7.47;;;5.10;93.50;;;;;;5119172;28;20234;-86
2021/12/17 05:25:53;;;;;;;10.73;6.90;;;4.90;95.10;;;;;;5140962;27;20652;-85
2021/12/17 05:28:59;;;;;;;9.03;7.33;;;5.40;94.90;;;;;;5155766;27;20189;-86
2021/12/17 05:31:49;;;;;;;7.67;6.17;;;5.30;94.70;;;;;;5165736;27;20285;-86
2021/12/17 05:34:16;;;;;;;8.53;7.00;;;5.20;93.90;;;;;;5157123;27;20188;-85
2021/12/17 05:36:44;;;;;;;7.90;6.37;;;5.10;94.50;;;;;;5158703;27;20178;-85
2021/12/17 05:50:09;;;;;;;8.20;7.03;;;5.10;95.10;;;;;;5155322;27;20182;-85
2021/12/17 05:56:19;;;;;;;8.93;6.23;;;4.70;95.50;;;;;;5158550;27;20309;-84
2021/12/17 05:58:58;;;;;;;8.30;6.53;;;4.70;95.80;;;;;;5149936;27;20249;-85
2021/12/17 06:01:31;;;;;;;8.63;6.67;;;4.70;96.00;;;;;;5138728;28;20217;-85
2021/12/17 06:03:58;;;;;;;8.13;5.97;;;4.70;95.90;;;;;;5158803;27;20197;-85
2021/12/17 06:06:27;;;;;;;6.63;5.93;;;4.60;95.90;;;;;;5084393;28;20235;-85
2021/12/17 06:08:54;;;;;;;8.33;5.50;;;4.50;96.20;;;;;;5099517;28;20321;-85
2021/12/17 06:11:23;;;;;;;39.33;22.37;;;4.40;96.50;;;;;;5104758;27;20544;-85
2021/12/17 06:13:50;;;;;;;17.13;10.43;;;4.50;97.60;;;;;;5131656;27;20278;-86
2021/12/17 06:16:17;;;;;;;6.63;5.57;;;4.70;96.80;;;;;;5140611;27;20232;-88
2021/12/17 06:18:55;;;;;;;7.60;5.50;;;4.70;96.40;;;;;;5112134;27;20206;-88
2021/12/17 06:21:22;;;;;;;7.70;5.73;;;4.60;95.90;;;;;;5158318;27;20248;-87
2021/12/17 06:23:49;;;;;;;6.57;5.70;;;4.50;96.00;;;;;;5144265;27;20199;-88
2021/12/17 06:26:16;;;;;;;8.07;5.97;;;4.40;96.30;;;;;;5140285;27;20230;-87
2021/12/17 06:28:49;;;;;;;6.53;5.60;;;4.30;96.50;;;;;;5134210;27;20617;-86
2021/12/17 06:31:25;;;;;;;7.90;6.50;;;4.40;96.30;;;;;;5122271;27;20215;-86
2021/12/17 06:33:52;;;;;;;8.37;6.23;;;4.30;96.20;;;;;;5138603;27;20188;-84
2021/12/17 06:36:19;;;;;;;8.40;6.50;;;4.30;96.20;;;;;;5148917;27;20215;-85
2021/12/17 06:39:01;;;;;;;9.73;7.27;;;4.30;96.20;;;;;;5146399;27;20191;-84
2021/12/17 06:41:28;;;;;;;46.47;20.80;;;4.30;96.60;;;;;;5150433;27;20259;-85
2021/12/17 06:43:59;;;;;;;44.90;20.93;;;4.40;97.20;;;;;;5135182;27;20223;-87
2021/12/17 06:46:34;;;;;;;44.07;19.43;;;4.40;96.70;;;;;;5138812;27;20223;-87
2021/12/17 06:49:28;;;;;;;25.03;12.37;;;4.60;96.50;;;;;;5123814;27;20323;-85
2021/12/17 06:54:47;;;;;;;51.60;20.53;;;5.00;95.10;;;;;;5141647;27;20313;-88
2021/12/17 07:00:40;;;;;;;46.17;21.73;;;4.80;95.00;;;;;;5122059;27;20723;-88
2021/12/17 07:06:01;;;;;;;52.30;20.80;;;4.80;95.00;;;;;;5134598;27;20360;-88
2021/12/17 07:22:20;;;;;;;13.57;8.10;;;4.30;93.80;;;;;;5135881;27;20202;-89
2021/12/17 07:28:02;;;;;;;10.30;7.47;;;4.00;94.90;;;;;;5127049;27;20232;-90
2021/12/17 07:33:32;;;;;;;8.80;7.30;;;3.70;95.30;;;;;;5059618;28;20596;-90
2021/12/17 07:36:08;;;;;;;12.23;8.07;;;3.40;95.20;;;;;;5110225;27;20223;-89
2021/12/17 07:38:39;;;;;;;10.23;7.73;;;3.20;95.90;;;;;;5118628;27;20256;-89
2021/12/17 07:41:08;;;;;;;10.13;7.77;;;3.00;96.60;;;;;;5131943;27;20229;-88
2021/12/17 07:43:40;;;;;;;11.70;7.97;;;3.10;97.30;;;;;;5130092;27;20199;-89
2021/12/17 07:46:10;;;;;;;17.53;9.53;;;3.30;97.30;;;;;;5116266;27;20223;-88
2021/12/17 07:49:16;;;;;;;10.97;7.60;;;3.40;97.30;;;;;;5117309;27;20195;-86
2021/12/17 07:51:45;;;;;;;10.90;7.20;;;3.50;96.70;;;;;;5139106;27;20251;-88
2021/12/17 07:54:21;;;;;;;11.07;8.33;;;3.30;96.50;;;;;;5151917;27;20197;-90
2021/12/17 07:56:48;;;;;;;46.57;18.13;;;3.30;96.90;;;;;;5144374;27;20242;-87
2021/12/17 07:59:15;;;;;;;11.70;8.27;;;3.70;97.70;;;;;;5132860;27;20224;-85
2021/12/17 08:01:43;;;;;;;21.20;12.00;;;3.90;96.20;;;;;;5150513;27;20199;-87
2021/12/17 08:04:26;;;;;;;29.93;12.57;;;4.00;96.10;;;;;;5140157;27;20277;-89
2021/12/17 08:06:55;;;;;;;9.57;7.30;;;4.10;95.90;;;;;;5114025;27;20275;-90
2021/12/17 08:09:24;;;;;;;23.03;10.73;;;4.10;95.10;;;;;;5123937;27;20222;-86
2021/12/17 08:11:55;;;;;;;10.53;7.93;;;4.20;95.40;;;;;;5111088;27;20196;-87
2021/12/17 08:14:23;;;;;;;12.57;8.37;;;4.30;94.90;;;;;;5109525;27;20231;-92
2021/12/17 08:31:40;;;;;;;15.13;7.70;;;5.70;92.20;;;;;;5136097;27;20687;-91
2021/12/17 08:34:07;;;;;;;11.87;7.83;;;5.80;90.30;;;;;;5144193;27;20194;-88
2021/12/17 08:36:34;;;;;;;10.47;8.13;;;5.70;90.60;;;;;;5142283;27;20758;-90
2021/12/17 08:39:04;;;;;;;13.67;8.57;;;5.90;90.90;;;;;;5132201;27;20230;-88
2021/12/17 08:41:31;;;;;;;11.88;8.25;;;6.40;90.40;;;;;;5136538;27;20286;-86
2021/12/17 08:44:00;;;;;;;11.57;8.38;;;6.70;86.30;;;;;;5129698;27;20203;-87
2021/12/17 08:46:27;;;;;;;9.73;7.45;;;7.00;85.50;;;;;;5142475;27;20658;-88
2021/12/17 08:48:54;;;;;;;12.15;7.45;;;7.50;83.50;;;;;;5133133;27;20286;-88
2021/12/17 08:51:28;;;;;;;7.50;6.70;;;8.00;78.10;;;;;;5142993;27;20223;-88
2021/12/17 08:53:59;;;;;;;9.98;7.40;;;8.10;72.00;;;;;;5141472;27;20252;-88
2021/12/17 08:56:34;;;;;;;6.57;5.88;;;8.40;73.30;;;;;;5144367;27;20214;-89
2021/12/17 08:59:03;;;;;;;8.15;6.50;;;9.70;59.90;;;;;;5146036;27;20187;-88
2021/12/17 09:01:40;;;;;;;7.93;6.15;;;9.90;52.80;;;;;;5136695;27;20290;-88
2021/12/17 09:04:09;;;;;;;7.30;6.60;;;10.10;48.50;;;;;;5142360;27;20229;-88
2021/12/17 09:07:06;;;;;;;11.77;7.88;;;9.90;51.60;;;;;;5130237;27;20195;-89
2021/12/17 09:09:53;;;;;;;6.47;5.88;;;10.10;53.10;;;;;;5123766;27;20223;-90
2021/12/17 09:12:22;;;;;;;6.40;5.80;;;11.20;47.90;;;;;;5137327;27;20198;-91
2021/12/17 09:14:49;;;;;;;7.55;6.63;;;11.60;43.20;;;;;;5138996;27;20227;-89
2021/12/17 09:17:19;;;;;;;7.70;6.20;;;11.90;43.50;;;;;;5113898;27;20227;-94
2021/12/17 09:20:27;;;;;;;9.15;6.35;;;12.80;38.20;;;;;;5137076;27;20241;-89
2021/12/17 09:22:54;;;;;;;8.45;6.35;;;13.60;34.00;;;;;;5126768;27;20275;-90
2021/12/17 09:26:07;;;;;;;7.80;6.15;;;12.80;33.60;;;;;;5158248;27;20618;-90
2021/12/17 09:31:58;;;;;;;6.00;5.47;;;14.00;31.60;;;;;;5163951;27;20215;-87
2021/12/17 09:34:26;;;;;;;6.47;5.88;;;14.50;29.80;;;;;;5141605;27;20231;-86
2021/12/17 09:37:00;;;;;;;6.38;5.63;;;14.70;29.10;;;;;;5139571;27;20555;-86
2021/12/17 09:39:28;;;;;;;7.72;6.03;;;14.60;27.50;;;;;;5142942;27;20248;-87
2021/12/17 09:41:56;;;;;;;6.80;6.07;;;14.00;29.60;;;;;;5149833;27;20199;-87
2021/12/17 09:44:23;;;;;;;7.15;6.45;;;12.70;31.90;;;;;;5130327;27;20199;-87
2021/12/17 09:46:57;;;;;;;6.28;5.65;;;12.50;33.80;;;;;;5148582;27;20649;-90
2021/12/17 09:50:02;;;;;;;6.00;5.40;;;11.20;36.00;;;;;;5109177;27;20250;-92
2021/12/17 09:52:29;;;;;;;7.80;5.35;;;10.90;38.30;;;;;;5141301;27;20202;-91
2021/12/17 09:54:57;;;;;;;7.53;5.40;;;10.10;42.20;;;;;;5140052;27;20287;-92
2021/12/17 10:01:15;;;;;;;6.28;5.68;;;8.90;55.90;;;;;;5133274;27;20569;-93
2021/12/17 10:03:42;;;;;;;7.25;5.60;;;9.00;55.80;;;;;;5112898;27;20233;-88
2021/12/17 10:06:23;;;;;;;7.43;5.40;;;8.80;57.90;;;;;;5150449;27;20218;-88
2021/12/17 10:08:50;;;;;;;5.95;5.32;;;8.90;58.20;;;;;;5158638;27;20258;-89
2021/12/17 10:11:18;;;;;;;5.82;5.25;;;8.70;58.40;;;;;;5162517;27;20226;-91
2021/12/17 10:16:26;;;;;;;5.68;5.18;;;8.60;60.70;;;;;;5105836;27;20326;-90
2021/12/17 10:19:00;;;;;;;6.95;5.97;;;7.90;65.90;;;;;;5132176;27;20231;-89
2021/12/17 10:27:19;;;;;;;9.02;6.22;;;7.80;72.60;;;;;;5137055;27;20225;-93
2021/12/17 10:29:47;;;;;;;6.32;5.72;;;8.10;71.80;;;;;;5147882;27;20230;-90
2021/12/17 10:32:19;;;;;;;6.38;5.68;;;8.60;67.70;;;;;;5117799;27;20187;-90
2021/12/17 10:35:06;;;;;;;8.23;5.95;;;9.00;64.10;;;;;;5129540;27;20302;-91
2021/12/17 10:40:58;;;;;;;6.38;5.75;;;9.50;59.60;;;;;;5095832;27;20694;-90
2021/12/17 10:43:32;;;;;;;9.32;5.85;;;9.40;58.40;;;;;;5140261;27;20556;-90
2021/12/17 10:46:05;;;;;;;6.82;5.80;;;9.70;58.60;;;;;;5139249;27;20693;-90
2021/12/17 10:48:36;;;;;;;6.53;5.85;;;10.50;51.70;;;;;;5145810;27;20194;-91
2021/12/17 10:51:32;;;;;;;6.95;6.13;;;10.90;47.60;;;;;;5143412;27;20223;-91
2021/12/17 10:54:05;;;;;;;7.13;6.45;;;11.20;44.80;;;;;;5116822;27;20256;-89
2021/12/17 10:56:33;;;;;;;6.68;6.07;;;11.40;44.60;;;;;;5136665;27;20215;-88
2021/12/17 10:59:05;;;;;;;8.60;6.60;;;11.40;44.10;;;;;;5134654;27;20191;-89
2021/12/17 11:01:45;;;;;;;7.60;6.22;;;11.30;43.20;;;;;;5144460;27;20225;-91
2021/12/17 11:04:17;;;;;;;7.20;6.50;;;11.10;44.60;;;;;;5101165;27;20203;-89
2021/12/17 11:06:50;;;;;;;7.57;6.82;;;10.70;46.40;;;;;;5119437;27;20200;-91
2021/12/17 11:15:30;;;;;;;8.75;7.30;;;9.40;56.10;;;;;;5124712;27;20221;-91
2021/12/17 11:18:00;;;;;;;10.15;7.05;;;8.90;59.20;;;;;;5187802;22;20224;-90
2021/12/17 11:20:29;;;;;;;8.77;7.13;;;8.50;64.80;;;;;;5102159;28;20288;-89
2021/12/17 11:23:03;;;;;;;16.98;13.00;;;8.40;67.80;;;;;;5086318;28;20291;-90
2021/12/17 11:25:34;;;;;;;8.45;7.47;;;8.20;68.10;;;;;;5101218;28;20232;-88
2021/12/17 11:28:10;;;;;;;11.40;8.48;;;8.20;68.90;;;;;;5093418;28;20210;-89
2021/12/17 11:30:40;;;;;;;12.63;9.32;;;8.10;70.40;;;;;;5100218;28;20218;-89
2021/12/17 11:33:07;;;;;;;9.25;7.53;;;8.00;72.70;;;;;;5090547;28;20197;-90
2021/12/17 11:35:37;;;;;;;8.98;7.45;;;7.90;72.80;;;;;;5079225;28;20340;-89
2021/12/17 11:38:07;;;;;;;9.00;7.30;;;7.90;72.70;;;;;;5082669;28;20201;-89
2021/12/17 11:40:49;;;;;;;9.02;6.70;;;7.80;72.60;;;;;;5099584;28;20228;-89
2021/12/17 11:43:35;;;;;;;13.10;7.20;;;7.70;72.60;;;;;;5072957;28;20247;-88
2021/12/17 11:46:06;;;;;;;12.35;9.63;;;7.60;75.90;;;;;;5078661;28;20366;-87
2021/12/17 11:48:49;;;;;;;10.85;8.35;;;7.50;76.40;;;;;;5091903;28;20201;-87
2021/12/17 11:51:23;;;;;;;8.82;6.88;;;7.60;78.20;;;;;;5097681;28;20296;-88
2021/12/17 11:54:06;;;;;;;10.43;7.57;;;7.60;75.40;;;;;;5096201;28;20227;-89
2021/12/17 11:56:49;;;;;;;9.13;7.22;;;7.70;77.40;;;;;;5079184;28;20220;-90
2021/12/17 11:59:42;;;;;;;9.85;7.75;;;7.60;77.70;;;;;;5089787;28;20259;-83
2021/12/17 12:02:16;;;;;;;8.85;6.95;;;7.60;80.20;;;;;;5092690;28;20205;-86
2021/12/17 12:04:48;;;;;;;7.95;6.68;;;7.60;81.50;;;;;;5094986;28;20224;-85
2021/12/17 12:07:18;;;;;;;7.65;6.85;;;7.60;83.50;;;;;;5097888;28;20192;-90
2021/12/17 12:10:11;;;;;;;7.50;6.80;;;7.60;84.30;;;;;;5105886;28;20315;-87
2021/12/17 12:13:09;;;;;;;10.82;7.78;;;7.50;85.40;;;;;;5094564;28;20200;-86
2021/12/17 12:15:39;;;;;;;8.55;7.65;;;7.40;85.80;;;;;;5089681;28;20232;-89
2021/12/17 12:18:38;;;;;;;8.63;7.53;;;7.20;86.30;;;;;;5091403;28;20205;-91
2021/12/17 12:32:31;;;;;;;9.80;7.20;;;7.40;87.10;;;;;;5068707;28;20277;-91
2021/12/17 12:35:25;;;;;;;11.23;7.83;;;7.30;86.90;;;;;;5093536;28;20221;-92
2021/12/17 12:41:00;;;;;;;10.65;8.32;;;7.30;86.30;;;;;;5072590;28;20234;-92
2021/12/17 12:43:32;;;;;;;10.47;8.27;;;6.90;88.60;;;;;;5087219;28;20665;-91
2021/12/17 12:49:43;;;;;;;13.23;9.57;;;6.60;90.00;;;;;;5088128;28;20204;-92
2021/12/17 13:00:58;;;;;;;9.00;7.67;;;6.30;91.00;;;;;;5065108;28;20225;-92
2021/12/17 13:09:00;;;;;;;7.97;6.83;;;6.50;90.80;;;;;;5060577;28;20705;-93
2021/12/17 13:11:27;;;;;;;7.07;6.37;;;6.50;91.30;;;;;;5083966;28;20212;-91
2021/12/17 13:13:58;;;;;;;6.72;6.05;;;6.40;91.30;;;;;;5085831;28;20224;-92
2021/12/17 13:22:52;;;;;;;7.17;6.23;;;6.80;91.10;;;;;;5089067;28;20836;-92
2021/12/17 13:28:06;;;;;;;7.93;7.05;;;7.00;90.10;;;;;;5066247;28;20200;-94
2021/12/17 13:33:20;;;;;;;8.07;7.27;;;6.80;90.00;;;;;;5068878;28;20663;-94
2021/12/17 13:38:32;;;;;;;8.70;7.80;;;6.40;90.80;;;;;;5073290;28;20267;-92
2021/12/17 13:41:09;;;;;;;10.03;8.40;;;6.40;91.50;;;;;;5089665;28;20309;-93
2021/12/17 13:43:41;;;;;;;9.03;8.13;;;6.40;91.60;;;;;;5079091;28;20200;-91
2021/12/17 13:46:09;;;;;;;8.43;7.63;;;6.30;91.60;;;;;;5089177;28;20318;-91
2021/12/17 13:48:36;;;;;;;9.00;8.10;;;6.20;91.90;;;;;;5070824;28;20204;-94
2021/12/17 13:53:56;;;;;;;9.47;8.50;;;6.20;91.90;;;;;;5083863;28;20193;-94
2021/12/17 13:56:23;;;;;;;10.13;8.47;;;6.10;92.10;;;;;;5080051;28;20335;-90
2021/12/17 13:59:02;;;;;;;11.40;10.20;;;6.10;92.60;;;;;;5082983;28;20295;-91
2021/12/17 14:01:29;;;;;;;10.10;9.10;;;6.10;92.50;;;;;;5093612;28;20220;-91
2021/12/17 14:03:58;;;;;;;11.20;10.00;;;6.10;92.70;;;;;;5072624;28;20192;-90
2021/12/17 14:06:35;;;;;;;10.67;9.57;;;6.00;93.00;;;;;;5096633;28;20259;-91
2021/12/17 14:09:02;;;;;;;13.50;10.57;;;6.00;93.10;;;;;;5088178;28;20192;-91
2021/12/17 14:11:33;;;;;;;11.17;10.07;;;5.90;93.70;;;;;;5084158;28;20220;-93
2021/12/17 14:14:02;;;;;;;11.00;9.90;;;6.10;93.50;;;;;;5073758;28;20569;-92
2021/12/17 14:16:30;;;;;;;11.77;10.10;;;6.10;93.00;;;;;;5089978;28;20219;-92
2021/12/17 14:18:59;;;;;;;10.90;9.80;;;6.20;92.80;;;;;;5090460;28;20201;-91
2021/12/17 14:21:36;;;;;;;10.50;9.50;;;6.20;92.70;;;;;;5083488;28;20220;-93
2021/12/17 14:24:05;;;;;;;11.43;9.63;;;6.30;92.80;;;;;;5096057;28;20192;-91
2021/12/17 14:26:33;;;;;;;10.93;9.83;;;6.30;92.50;;;;;;5068587;28;20227;-92
2021/12/17 14:29:09;;;;;;;11.27;9.20;;;6.30;92.70;;;;;;5073560;28;20292;-90
2021/12/17 14:31:37;;;;;;;10.23;9.23;;;6.20;92.50;;;;;;5090165;28;20212;-92
2021/12/17 14:34:04;;;;;;;10.97;8.50;;;6.20;92.30;;;;;;5067359;28;20215;-90
2021/12/17 14:36:38;;;;;;;10.93;9.77;;;6.20;92.10;;;;;;5081551;28;20212;-90
2021/12/17 14:39:08;;;;;;;14.37;10.50;;;6.20;91.80;;;;;;5082171;28;20205;-89
2021/12/17 14:41:45;;;;;;;12.20;10.80;;;6.00;92.50;;;;;;5082902;28;20701;-88
2021/12/17 14:44:30;;;;;;;13.60;11.77;;;6.00;92.60;;;;;;5086654;28;21380;-89
2021/12/17 14:47:05;;;;;;;12.33;10.73;;;5.80;93.00;;;;;;5093397;28;20655;-91
2021/12/17 15:00:58;;;;;;;13.60;11.67;;;6.00;92.60;;;;;;5089655;28;20224;-91
2021/12/17 15:03:39;;;;;;;14.93;12.77;;;5.80;93.00;;;;;;5089692;28;20200;-90
2021/12/17 15:08:54;;;;;;;13.80;12.30;;;6.00;93.20;;;;;;5082371;28;20197;-92
2021/12/17 15:11:42;;;;;;;14.90;11.37;;;5.90;93.30;;;;;;5079051;28;20871;-95
2021/12/17 15:16:54;;;;;;;14.27;12.03;;;5.90;93.40;;;;;;5081476;28;20718;-92
2021/12/17 15:19:21;;;;;;;15.23;12.33;;;6.00;93.50;;;;;;5081946;28;20216;-92
2021/12/17 15:21:48;;;;;;;13.53;11.63;;;6.00;93.00;;;;;;5091361;28;20234;-92
2021/12/17 15:24:33;;;;;;;15.60;12.67;;;6.00;92.70;;;;;;5086307;28;20199;-92
2021/12/17 15:27:04;;;;;;;13.97;11.47;;;6.00;92.90;;;;;;5089492;28;20749;-92
2021/12/17 15:29:45;;;;;;;14.17;12.63;;;6.10;92.60;;;;;;5077724;28;20228;-94
2021/12/17 15:35:01;;;;;;;13.37;11.97;;;5.70;92.90;;;;;;5090663;28;20305;-92
2021/12/17 15:37:32;;;;;;;13.87;12.37;;;5.50;93.60;;;;;;5082264;28;20667;-91
2021/12/17 15:40:02;;;;;;;15.27;13.37;;;5.30;93.90;;;;;;5087232;28;20816;-91
2021/12/17 15:42:32;;;;;;;17.30;13.20;;;5.10;94.30;;;;;;5089572;28;21067;-92
2021/12/17 15:45:01;;;;;;;16.80;13.13;;;5.10;95.00;;;;;;5095130;28;20232;-92
2021/12/17 15:47:30;;;;;;;16.20;13.67;;;5.00;95.00;;;;;;5090202;28;20280;-93
2021/12/17 15:50:06;;;;;;;17.17;14.50;;;5.00;95.10;;;;;;5062111;28;20305;-91
2021/12/17 15:52:33;;;;;;;15.97;13.80;;;5.00;95.50;;;;;;5081785;28;20223;-93
2021/12/17 15:55:06;;;;;;;17.40;13.70;;;5.10;95.70;;;;;;5088033;28;20315;-92
2021/12/17 15:57:34;;;;;;;17.00;13.57;;;5.20;95.60;;;;;;5083094;28;20220;-92
2021/12/17 16:00:01;;;;;;;15.17;13.23;;;5.30;95.10;;;;;;5088570;28;20247;-91
2021/12/17 16:02:28;;;;;;;15.77;13.13;;;5.50;95.20;;;;;;5090982;28;20639;-93
2021/12/17 16:05:01;;;;;;;18.90;14.17;;;5.60;94.90;;;;;;5088365;28;20254;-91
2021/12/17 16:07:48;;;;;;;16.90;13.80;;;5.70;94.50;;;;;;5091276;28;20204;-92
2021/12/17 16:18:56;;;;;;;14.40;12.37;;;5.70;93.40;;;;;;5092551;28;20237;-90
2021/12/17 16:21:23;;;;;;;13.60;11.87;;;5.50;93.70;;;;;;5069638;28;20285;-90
2021/12/17 16:23:53;;;;;;;14.10;11.67;;;5.40;93.10;;;;;;5075703;28;20200;-85
2021/12/17 16:26:23;;;;;;;15.17;12.57;;;5.40;93.70;;;;;;5083185;28;20224;-86
2021/12/17 16:28:51;;;;;;;16.37;13.47;;;5.30;94.10;;;;;;5096279;28;20198;-86
2021/12/17 16:31:21;;;;;;;15.97;13.57;;;5.30;94.50;;;;;;5104080;28;20220;-91
2021/12/17 16:33:50;;;;;;;17.07;13.27;;;5.40;94.40;;;;;;5100423;28;20201;-91
2021/12/17 16:36:17;;;;;;;16.07;13.90;;;5.50;94.50;;;;;;5095722;28;20235;-92
2021/12/17 16:38:44;;;;;;;16.63;13.63;;;5.50;94.00;;;;;;5091948;28;20204;-89
2021/12/17 16:41:12;;;;;;;15.97;13.70;;;5.60;94.10;;;;;;5094027;28;20303;-90
2021/12/17 16:43:43;;;;;;;16.33;13.37;;;5.70;93.90;;;;;;5093722;28;20250;-90
2021/12/17 16:48:53;;;;;;;15.77;13.53;;;5.80;93.60;;;;;;5092976;28;20188;-90
2021/12/17 16:51:23;;;;;;;18.20;13.63;;;5.80;93.30;;;;;;5077715;28;20231;-93
2021/12/17 16:53:50;;;;;;;15.70;12.70;;;5.70;93.60;;;;;;5095551;28;20201;-91
2021/12/17 16:56:20;;;;;;;15.13;13.20;;;5.80;93.30;;;;;;5083049;28;20235;-91
2021/12/17 16:58:49;;;;;;;18.80;13.93;;;5.90;92.90;;;;;;5088877;28;20211;-93
2021/12/17 17:01:17;;;;;;;17.23;14.37;;;5.90;92.50;;;;;;5084748;28;20216;-92
2021/12/17 17:03:46;;;;;;;19.53;15.03;;;5.80;92.70;;;;;;5096629;28;20224;-92
2021/12/17 17:06:24;;;;;;;18.23;14.90;;;5.80;92.70;;;;;;5077256;28;20245;-91
2021/12/17 17:08:54;;;;;;;16.30;14.13;;;5.70;92.90;;;;;;5099407;28;20197;-92
2021/12/17 17:11:28;;;;;;;16.63;14.83;;;5.70;92.90;;;;;;5064633;28;20224;-91
2021/12/17 17:13:58;;;;;;;16.73;14.40;;;5.70;92.90;;;;;;5087013;28;20214;-91
2021/12/17 17:16:24;;;;;;;18.07;14.50;;;5.70;93.10;;;;;;5086089;28;20327;-90
2021/12/17 17:19:00;;;;;;;19.67;14.47;;;5.60;93.30;;;;;;5080242;28;20205;-93
2021/12/17 17:21:27;;;;;;;17.37;14.53;;;5.60;93.10;;;;;;5072534;28;20234;-89
2021/12/17 17:23:55;;;;;;;18.00;14.47;;;5.60;93.20;;;;;;5077090;28;20199;-90
2021/12/17 17:26:24;;;;;;;17.20;14.73;;;5.60;93.30;;;;;;5069802;28;20224;-91
2021/12/17 17:28:50;;;;;;;19.73;16.17;;;5.70;93.20;;;;;;5096850;28;20599;-91
2021/12/17 17:31:19;;;;;;;18.33;15.43;;;5.60;93.00;;;;;;5093166;28;20910;-94
2021/12/17 17:33:49;;;;;;;18.63;15.47;;;5.50;93.30;;;;;;5093893;28;20205;-89
2021/12/17 17:36:18;;;;;;;19.07;15.27;;;5.30;93.50;;;;;;5091900;28;20586;-89